Observation data for Tulia on 11/08/2019      Previous  Date       Current Mesonet Observations  Soil Data  Daily Summary Page  Observations in Plain Language
KTIS 080600Z 06000KT 01/M04 A3045 RMK A01 T00091039  RH  070%=      5-min Rain = 0
KTIS 080605Z 05002KT 01/M04 A3044 RMK A01 T00101036  RH  072%=      5-min Rain = 0
KTIS 080610Z 04001KT 01/M04 A3044 RMK A01 T00101036  RH  072%=      5-min Rain = 0
KTIS 080615Z 04000KT 01/M04 A3044 RMK A01 T00101039  RH  070%=      5-min Rain = 0
KTIS 080620Z 05001KT 01/M04 A3044 RMK A01 T00101038  RH  071%=      5-min Rain = 0
KTIS 080625Z 05001KT 01/M04 A3044 RMK A01 T00101039  RH  070%=      5-min Rain = 0
KTIS 080630Z 05001KT 01/M04 A3044 RMK A01 T00101038  RH  070%=      5-min Rain = 0
KTIS 080635Z 00000KT 01/M04 A3044 RMK A01 T00101038  RH  071%=      5-min Rain = 0
KTIS 080640Z 00000KT 01/M04 A3044 RMK A01 T00101039  RH  070%=      5-min Rain = 0
KTIS 080645Z 00000KT 01/M04 A3044 RMK A01 T00111038  RH  070%=      5-min Rain = 0
KTIS 080650Z 04000KT 01/M04 A3044 RMK A01 T00111036  RH  071%=      5-min Rain = 0
KTIS 080655Z 31001KT 01/M04 A3044 RMK A01 T00111037  RH  071%=      5-min Rain = 0
KTIS 080700Z 29002KT 01/M04 A3044 RMK A01 T00121037  RH  071%=      5-min Rain = 0
KTIS 080705Z 30002KT 01/M04 A3044 RMK A01 T00121037  RH  070%=      5-min Rain = 0
KTIS 080710Z 33002KT 01/M04 A3044 RMK A01 T00111038  RH  070%=      5-min Rain = 0
KTIS 080715Z 32001KT 01/M04 A3044 RMK A01 T00121037  RH  070%=      5-min Rain = 0
KTIS 080720Z 33002KT 01/M04 A3044 RMK A01 T00121039  RH  069%=      5-min Rain = 0
KTIS 080725Z 32002KT 01/M04 A3044 RMK A01 T00121039  RH  069%=      5-min Rain = 0
KTIS 080730Z 32003KT 01/M04 A3044 RMK A01 T00121040  RH  069%=      5-min Rain = 0
KTIS 080735Z 31003KT 01/M04 A3044 RMK A01 T00131037  RH  070%=      5-min Rain = 0
KTIS 080740Z 32002KT 01/M04 A3043 RMK A01 T00131036  RH  070%=      5-min Rain = 0
KTIS 080745Z 31002KT 01/M04 A3043 RMK A01 T00131039  RH  069%=      5-min Rain = 0
KTIS 080750Z 30003KT 01/M04 A3043 RMK A01 T00131040  RH  068%=      5-min Rain = 0
KTIS 080755Z 29003KT 01/M04 A3043 RMK A01 T00131039  RH  069%=      5-min Rain = 0
KTIS 080800Z 29002KT 01/M04 A3042 RMK A01 T00131039  RH  069%=      5-min Rain = 0
KTIS 080805Z 30002KT 01/M04 A3042 RMK A01 T00131040  RH  068%=      5-min Rain = 0
KTIS 080810Z 29002KT 01/M04 A3042 RMK A01 T00131038  RH  069%=      5-min Rain = 0
KTIS 080815Z 29003KT 01/M04 A3042 RMK A01 T00131037  RH  069%=      5-min Rain = 0
KTIS 080820Z 29003KT 01/M04 A3041 RMK A01 T00141037  RH  070%=      5-min Rain = 0
KTIS 080825Z 28002KT 01/M04 A3041 RMK A01 T00131038  RH  069%=      5-min Rain = 0
KTIS 080830Z 27002KT 01/M04 A3041 RMK A01 T00131038  RH  069%=      5-min Rain = 0
KTIS 080835Z 27002KT 01/M04 A304 RMK A01 T00131038  RH  069%=      5-min Rain = 0
KTIS 080840Z 27002KT 01/M04 A304 RMK A01 T00141036  RH  070%=      5-min Rain = 0
KTIS 080845Z 27003KT 01/M04 A3041 RMK A01 T00141037  RH  069%=      5-min Rain = 0
KTIS 080850Z 27002KT 01/M04 A3041 RMK A01 T00141036  RH  070%=      5-min Rain = 0
KTIS 080855Z 29003KT 01/M04 A3041 RMK A01 T00141035  RH  070%=      5-min Rain = 0
KTIS 080900Z 30003KT 01/M04 A3041 RMK A01 T00141035  RH  070%=      5-min Rain = 0
KTIS 080905Z 29003KT 02/M03 A3041 RMK A01 T00151034  RH  070%=      5-min Rain = 0
KTIS 080910Z 27003KT 02/M04 A3041 RMK A01 T00151036  RH  069%=      5-min Rain = 0
KTIS 080915Z 27003KT 02/M04 A3041 RMK A01 T00151036  RH  069%=      5-min Rain = 0
KTIS 080920Z 26004KT 02/M03 A3041 RMK A01 T00151032  RH  071%=      5-min Rain = 0
KTIS 080925Z 27004KT 02/M03 A3041 RMK A01 T00161031  RH  072%=      5-min Rain = 0
KTIS 080930Z 28005KT 02/M03 A3041 RMK A01 T00151030  RH  072%=      5-min Rain = 0
KTIS 080935Z 26003KT 02/M03 A3041 RMK A01 T00151033  RH  071%=      5-min Rain = 0
KTIS 080940Z 27003KT 02/M04 A3041 RMK A01 T00151037  RH  069%=      5-min Rain = 0
KTIS 080945Z 27004KT 02/M03 A3041 RMK A01 T00151034  RH  070%=      5-min Rain = 0
KTIS 080950Z 28004KT 01/M03 A304 RMK A01 T00141030  RH  073%=      5-min Rain = 0
KTIS 080955Z 26004KT 01/M03 A304 RMK A01 T00141027  RH  075%=      5-min Rain = 0
KTIS 081000Z 29003KT 01/M03 A304 RMK A01 T00131026  RH  076%=      5-min Rain = 0
KTIS 081005Z 28003KT 01/M02 A304 RMK A01 T00131023  RH  077%=      5-min Rain = 0
KTIS 081010Z 25003KT 01/M02 A304 RMK A01 T00131022  RH  078%=      5-min Rain = 0
KTIS 081015Z 25003KT 01/M02 A304 RMK A01 T00131021  RH  079%=      5-min Rain = 0
KTIS 081020Z 26004KT 01/M02 A3039 RMK A01 T00131021  RH  079%=      5-min Rain = 0
KTIS 081025Z 24003KT 01/M02 A3039 RMK A01 T00131019  RH  080%=      5-min Rain = 0
KTIS 081030Z 27003KT 01/M02 A304 RMK A01 T00131018  RH  080%=      5-min Rain = 0
KTIS 081035Z 25005KT 01/M02 A304 RMK A01 T00131016  RH  081%=      5-min Rain = 0
KTIS 081040Z 26006KT 01/M01 A304 RMK A01 T00131014  RH  083%=      5-min Rain = 0
KTIS 081045Z 26005KT 01/M01 A3039 RMK A01 T00121014  RH  084%=      5-min Rain = 0
KTIS 081050Z 25005KT 01/M01 A3039 RMK A01 T00121012  RH  085%=      5-min Rain = 0
KTIS 081055Z 26004KT 01/M01 A3039 RMK A01 T00111013  RH  085%=      5-min Rain = 0
KTIS 081100Z 26004KT 01/M01 A3039 RMK A01 T00111011  RH  086%=      5-min Rain = 0
KTIS 081105Z 27004KT 01/M01 A3039 RMK A01 T00111010  RH  087%=      5-min Rain = 0
KTIS 081110Z 27004KT 01/M01 A3039 RMK A01 T00111009  RH  088%=      5-min Rain = 0
KTIS 081115Z 26004KT 01/M01 A3039 RMK A01 T00111008  RH  089%=      5-min Rain = 0
KTIS 081120Z 25005KT 01/M01 A3039 RMK A01 T00101007  RH  090%=      5-min Rain = 0
KTIS 081125Z 23004KT 01/M01 A3038 RMK A01 T00101005  RH  091%=      5-min Rain = 0
KTIS 081130Z 21004KT 01/M00 A3038 RMK A01 T00101004  RH  091%=      5-min Rain = 0
KTIS 081135Z 22004KT 01/M00 A3038 RMK A01 T00101003  RH  092%=      5-min Rain = 0
KTIS 081140Z 23003KT 01/M00 A3038 RMK A01 T00101002  RH  092%=      5-min Rain = 0
KTIS 081145Z 23003KT 01/M00 A3039 RMK A01 T00101002  RH  093%=      5-min Rain = 0
KTIS 081150Z 25003KT 01/M00 A3038 RMK A01 T00111001  RH  093%=      5-min Rain = 0
KTIS 081155Z 25002KT 01/M00 A3038 RMK A01 T00111001  RH  093%=      5-min Rain = 0
KTIS 081200Z 24002KT 01/00 A3038 RMK A01 T001100-0  RH  093%=      5-min Rain = 0
KTIS 081205Z 22003KT 01/00 A3038 RMK A01 T00120000  RH  093%=      5-min Rain = 0
KTIS 081210Z 21003KT 01/00 A3037 RMK A01 T00120001  RH  093%=      5-min Rain = 0
KTIS 081215Z 20003KT 01/00 A3037 RMK A01 T00130001  RH  093%=      5-min Rain = 0
KTIS 081220Z 23003KT 01/00 A3038 RMK A01 T00120001  RH  093%=      5-min Rain = 0
KTIS 081225Z 23002KT 01/00 A3038 RMK A01 T00120001  RH  093%=      5-min Rain = 0
KTIS 081230Z 23002KT 01/00 A3038 RMK A01 T00130002  RH  093%=      5-min Rain = 0
KTIS 081235Z 23003KT 01/00 A3038 RMK A01 T00130002  RH  093%=      5-min Rain = 0
KTIS 081240Z 24003KT 01/00 A3038 RMK A01 T00140002  RH  093%=      5-min Rain = 0
KTIS 081245Z 25002KT 01/00 A3038 RMK A01 T00140002  RH  093%=      5-min Rain = 0
KTIS 081250Z 25001KT 01/00 A3038 RMK A01 T00140002  RH  093%=      5-min Rain = 0
KTIS 081255Z 21002KT 02/00 A3038 RMK A01 T00150003  RH  093%=      5-min Rain = 0
KTIS 081300Z 21001KT 02/00 A3038 RMK A01 T00150002  RH  092%=      5-min Rain = 0
KTIS 081305Z 22001KT 02/00 A3038 RMK A01 T00150002  RH  092%=      5-min Rain = 0
KTIS 081310Z 22002KT 02/00 A3038 RMK A01 T00160003  RH  092%=      5-min Rain = 0
KTIS 081315Z 23002KT 02/00 A3038 RMK A01 T00160003  RH  092%=      5-min Rain = 0
KTIS 081320Z 22001KT 02/00 A3038 RMK A01 T00170003  RH  092%=      5-min Rain = 0
KTIS 081325Z 23002KT 02/00 A3039 RMK A01 T00170004  RH  092%=      5-min Rain = 0
KTIS 081330Z 23002KT 02/00 A3038 RMK A01 T00170004  RH  092%=      5-min Rain = 0
KTIS 081335Z 23001KT 02/00 A3039 RMK A01 T00170004  RH  092%=      5-min Rain = 0
KTIS 081340Z 23001KT 02/00 A3039 RMK A01 T00180004  RH  092%=      5-min Rain = 0
KTIS 081345Z 23001KT 02/01 A3039 RMK A01 T00180005  RH  092%=      5-min Rain = 0
KTIS 081350Z 21001KT 02/01 A3039 RMK A01 T00200006  RH  092%=      5-min Rain = 0
KTIS 081355Z 21000KT 02/01 A3039 RMK A01 T00200006  RH  092%=      5-min Rain = 0
KTIS 081400Z 23000KT 02/01 A304 RMK A01 T00210007  RH  092%=      5-min Rain = 0
KTIS 081405Z 28002KT 02/01 A304 RMK A01 T00220008  RH  092%=      5-min Rain = 0
KTIS 081410Z 30001KT 02/01 A304 RMK A01 T00220008  RH  092%=      5-min Rain = 0
KTIS 081415Z 30000KT 02/01 A304 RMK A01 T00220008  RH  092%=      5-min Rain = 0
KTIS 081420Z 20001KT 02/01 A304 RMK A01 T00230009  RH  092%=      5-min Rain = 0
KTIS 081425Z 20001KT 02/01 A304 RMK A01 T00230009  RH  092%=      5-min Rain = 0
KTIS 081430Z 19001KT 02/01 A304 RMK A01 T00240010  RH  092%=      5-min Rain = 0
KTIS 081435Z 18002KT 02/01 A304 RMK A01 T00240011  RH  092%=      5-min Rain = 0
KTIS 081440Z 18003KT 02/01 A304 RMK A01 T00240011  RH  092%=      5-min Rain = 0
KTIS 081445Z 17003KT 03/01 A304 RMK A01 T00250012  RH  093%=      5-min Rain = 0
KTIS 081450Z 17003KT 02/01 A304 RMK A01 T00240012  RH  093%=      5-min Rain = 0
KTIS 081455Z 17005KT 03/01 A304 RMK A01 T00250014  RH  094%=      5-min Rain = 0
KTIS 081500Z 16004KT 03/02 A304 RMK A01 T00260015  RH  094%=      5-min Rain = 0
KTIS 081505Z 17005KT 03/02 A3039 RMK A01 T00270017  RH  094%=      5-min Rain = 0
KTIS 081510Z 17005KT 03/02 A3039 RMK A01 T00270017  RH  094%=      5-min Rain = 0
KTIS 081515Z 16005KT 03/02 A304 RMK A01 T00280018  RH  094%=      5-min Rain = 0
KTIS 081520Z 17005KT 03/02 A304 RMK A01 T00290018  RH  094%=      5-min Rain = 0
KTIS 081525Z 17005KT 03/02 A304 RMK A01 T00310021  RH  095%=      5-min Rain = 0
KTIS 081530Z 18006KT 03/02 A304 RMK A01 T00320021  RH  094%=      5-min Rain = 0
KTIS 081535Z 17006KT 03/02 A304 RMK A01 T00320020  RH  094%=      5-min Rain = 0
KTIS 081540Z 18005KT 03/02 A304 RMK A01 T00330022  RH  094%=      5-min Rain = 0
KTIS 081545Z 18006KT 04/02 A3039 RMK A01 T00350022  RH  093%=      5-min Rain = 0
KTIS 081550Z 18006KT 04/02 A3039 RMK A01 T00370024  RH  093%=      5-min Rain = 0
KTIS 081555Z 19008KT 04/03 A3039 RMK A01 T00390025  RH  092%=      5-min Rain = 0
KTIS 081600Z 20007KT 04/02 A3039 RMK A01 T00400024  RH  091%=      5-min Rain = 0
KTIS 081605Z 19009KT 04/03 A3038 RMK A01 T00410025  RH  091%=      5-min Rain = 0
KTIS 081610Z 19008KT 04/03 A3038 RMK A01 T00430026  RH  090%=      5-min Rain = 0
KTIS 081615Z 19008KT 05/03 A3038 RMK A01 T00450027  RH  090%=      5-min Rain = 0
KTIS 081620Z 19009KT 05/03 A3038 RMK A01 T00460027  RH  089%=      5-min Rain = 0
KTIS 081625Z 21008KT 05/03 A3039 RMK A01 T00470027  RH  089%=      5-min Rain = 0
KTIS 081630Z 20008KT 05/03 A3039 RMK A01 T00490029  RH  088%=      5-min Rain = 0
KTIS 081635Z 20008KT 05/03 A3039 RMK A01 T00510029  RH  088%=      5-min Rain = 0
KTIS 081640Z 21008KT 05/03 A3039 RMK A01 T00520030  RH  087%=      5-min Rain = 0
KTIS 081645Z 21009KT 05/03 A3038 RMK A01 T00540032  RH  087%=      5-min Rain = 0
KTIS 081650Z 21009KT 05/03 A3038 RMK A01 T00540031  RH  087%=      5-min Rain = 0
KTIS 081655Z 21010KT 06/03 A3038 RMK A01 T00550032  RH  087%=      5-min Rain = 0
KTIS 081700Z 22009KT 06/03 A3038 RMK A01 T00560033  RH  087%=      5-min Rain = 0
KTIS 081705Z 23010KT 06/03 A3038 RMK A01 T00560033  RH  087%=      5-min Rain = 0
KTIS 081710Z 22010G15KT 06/03 A3038 RMK A01 T00550033  RH  087%=      5-min Rain = 0
KTIS 081715Z 22009KT 06/03 A3037 RMK A01 T00560034  RH  087%=      5-min Rain = 0
KTIS 081720Z 21009KT 06/04 A3037 RMK A01 T00570035  RH  087%=      5-min Rain = 0
KTIS 081725Z 21009KT 06/04 A3037 RMK A01 T00580036  RH  087%=      5-min Rain = 0
KTIS 081730Z 20010KT 06/04 A3036 RMK A01 T00610037  RH  087%=      5-min Rain = 0
KTIS 081735Z 22010KT 06/04 A3036 RMK A01 T00620038  RH  086%=      5-min Rain = 0
KTIS 081740Z 22012KT 06/04 A3036 RMK A01 T00610038  RH  086%=      5-min Rain = 0
KTIS 081745Z 22010KT 06/04 A3036 RMK A01 T00620039  RH  087%=      5-min Rain = 0
KTIS 081750Z 23011KT 06/04 A3036 RMK A01 T00630039  RH  086%=      5-min Rain = 0
KTIS 081755Z 23012KT 06/04 A3035 RMK A01 T00630039  RH  087%=      5-min Rain = 0
KTIS 081800Z 23012G17KT 06/04 A3035 RMK A01 T00640040  RH  086%=      5-min Rain = 0
KTIS 081805Z 23013KT 06/04 A3035 RMK A01 T00640040  RH  086%=      5-min Rain = 0
KTIS 081810Z 23014G19KT 07/04 A3035 RMK A01 T00650040  RH  086%=      5-min Rain = 0
KTIS 081815Z 23013KT 07/04 A3034 RMK A01 T00660041  RH  086%=      5-min Rain = 0
KTIS 081820Z 23013KT 07/04 A3034 RMK A01 T00660040  RH  085%=      5-min Rain = 0
KTIS 081825Z 22013KT 07/04 A3035 RMK A01 T00680042  RH  085%=      5-min Rain = 0
KTIS 081830Z 22011KT 07/04 A3035 RMK A01 T00690042  RH  085%=      5-min Rain = 0
KTIS 081835Z 24010KT 07/04 A3035 RMK A01 T00690042  RH  085%=      5-min Rain = 0
KTIS 081840Z 24011KT 07/04 A3034 RMK A01 T00680042  RH  085%=      5-min Rain = 0
KTIS 081845Z 24010KT 07/04 A3034 RMK A01 T00690042  RH  085%=      5-min Rain = 0
KTIS 081850Z 23012KT 07/04 A3033 RMK A01 T00690043  RH  085%=      5-min Rain = 0
KTIS 081855Z 23013KT 07/04 A3033 RMK A01 T00700043  RH  085%=      5-min Rain = 0
KTIS 081900Z 22012KT 07/04 A3032 RMK A01 T00690043  RH  085%=      5-min Rain = 0
KTIS 081905Z 23011G16KT 07/04 A3032 RMK A01 T00690043  RH  085%=      5-min Rain = 0
KTIS 081910Z 23013KT 07/04 A3032 RMK A01 T00690044  RH  085%=      5-min Rain = 0
KTIS 081915Z 22012KT 07/04 A3032 RMK A01 T00700044  RH  085%=      5-min Rain = 0
KTIS 081920Z 22013KT 07/04 A3032 RMK A01 T00700043  RH  084%=      5-min Rain = 0
KTIS 081925Z 23013KT 07/04 A3031 RMK A01 T00690043  RH  085%=      5-min Rain = 0
KTIS 081930Z 23013KT 07/04 A3031 RMK A01 T00710043  RH  084%=      5-min Rain = 0
KTIS 081935Z 24011KT 07/04 A3031 RMK A01 T00700043  RH  084%=      5-min Rain = 0
KTIS 081940Z 24012KT 07/04 A3031 RMK A01 T00720043  RH  084%=      5-min Rain = 0
KTIS 081945Z 24011KT 07/04 A3031 RMK A01 T00720043  RH  084%=      5-min Rain = 0
KTIS 081950Z 23011KT 07/04 A3031 RMK A01 T00740044  RH  083%=      5-min Rain = 0
KTIS 081955Z 24011KT 07/04 A3031 RMK A01 T00730043  RH  083%=      5-min Rain = 0
KTIS 082000Z 24011G16KT 07/04 A3031 RMK A01 T00730044  RH  083%=      5-min Rain = 0
KTIS 082005Z 22011KT 08/05 A303 RMK A01 T00750045  RH  083%=      5-min Rain = 0
KTIS 082010Z 24012G17KT 08/05 A303 RMK A01 T00760045  RH  082%=      5-min Rain = 0
KTIS 082015Z 23010G15KT 08/05 A303 RMK A01 T00780047  RH  082%=      5-min Rain = 0
KTIS 082020Z 22013KT 08/05 A3029 RMK A01 T00770045  RH  082%=      5-min Rain = 0
KTIS 082025Z 23011KT 08/04 A3029 RMK A01 T00760044  RH  082%=      5-min Rain = 0
KTIS 082030Z 23010KT 08/05 A3029 RMK A01 T00780046  RH  082%=      5-min Rain = 0
KTIS 082035Z 23011KT 08/05 A303 RMK A01 T00800047  RH  081%=      5-min Rain = 0
KTIS 082040Z 22012G17KT 08/05 A3029 RMK A01 T00790046  RH  081%=      5-min Rain = 0
KTIS 082045Z 22011KT 08/05 A3029 RMK A01 T00790046  RH  081%=      5-min Rain = 0
KTIS 082050Z 23010KT 08/05 A3029 RMK A01 T00790046  RH  081%=      5-min Rain = 0
KTIS 082055Z 24010G16KT 08/05 A3029 RMK A01 T00820047  RH  080%=      5-min Rain = 0
KTIS 082100Z 24011KT 08/05 A3029 RMK A01 T00820047  RH  080%=      5-min Rain = 0
KTIS 082105Z 23011G16KT 08/05 A3028 RMK A01 T00840047  RH  079%=      5-min Rain = 0
KTIS 082110Z 23013G18KT 08/05 A3028 RMK A01 T00820046  RH  080%=      5-min Rain = 0
KTIS 082115Z 24012KT 08/05 A3028 RMK A01 T00810047  RH  081%=      5-min Rain = 0
KTIS 082120Z 23012KT 08/05 A3028 RMK A01 T00840049  RH  080%=      5-min Rain = 0
KTIS 082125Z 23012G18KT 09/05 A3028 RMK A01 T00870049  RH  079%=      5-min Rain = 0
KTIS 082130Z 23012KT 09/05 A3028 RMK A01 T00850048  RH  079%=      5-min Rain = 0
KTIS 082135Z 24011G16KT 09/05 A3027 RMK A01 T00860049  RH  079%=      5-min Rain = 0
KTIS 082140Z 24012KT 09/05 A3027 RMK A01 T00870049  RH  079%=      5-min Rain = 0
KTIS 082145Z 24010G15KT 09/05 A3027 RMK A01 T00860050  RH  080%=      5-min Rain = 0
KTIS 082150Z 23012G17KT 09/05 A3027 RMK A01 T00850048  RH  080%=      5-min Rain = 0
KTIS 082155Z 23010KT 09/05 A3027 RMK A01 T00850051  RH  081%=      5-min Rain = 0
KTIS 082200Z 24012KT 09/05 A3027 RMK A01 T00880050  RH  079%=      5-min Rain = 0
KTIS 082205Z 23012KT 09/05 A3026 RMK A01 T00850049  RH  080%=      5-min Rain = 0
KTIS 082210Z 24012KT 09/05 A3026 RMK A01 T00850049  RH  080%=      5-min Rain = 0
KTIS 082215Z 24009KT 08/05 A3026 RMK A01 T00840049  RH  080%=      5-min Rain = 0
KTIS 082220Z 24010KT 09/05 A3026 RMK A01 T00850050  RH  080%=      5-min Rain = 0
KTIS 082225Z 25010KT 08/05 A3026 RMK A01 T00830049  RH  081%=      5-min Rain = 0
KTIS 082230Z 25009G14KT 08/05 A3026 RMK A01 T00820050  RH  082%=      5-min Rain = 0
KTIS 082235Z 24011KT 08/05 A3027 RMK A01 T00830050  RH  081%=      5-min Rain = 0
KTIS 082240Z 25010KT 08/05 A3027 RMK A01 T00820049  RH  082%=      5-min Rain = 0
KTIS 082245Z 25011KT 08/05 A3026 RMK A01 T00810050  RH  082%=      5-min Rain = 0
KTIS 082250Z 25010KT 08/05 A3027 RMK A01 T00800049  RH  083%=      5-min Rain = 0
KTIS 082255Z 24011KT 08/05 A3027 RMK A01 T00800049  RH  082%=      5-min Rain = 0
KTIS 082300Z 25009KT 08/05 A3027 RMK A01 T00790049  RH  083%=      5-min Rain = 0
KTIS 082305Z 24011KT 08/05 A3027 RMK A01 T00790049  RH  083%=      5-min Rain = 0
KTIS 082310Z 24010KT 08/05 A3027 RMK A01 T00790049  RH  083%=      5-min Rain = 0
KTIS 082315Z 25010KT 08/05 A3027 RMK A01 T00780048  RH  083%=      5-min Rain = 0
KTIS 082320Z 25010KT 08/05 A3027 RMK A01 T00780048  RH  083%=      5-min Rain = 0
KTIS 082325Z 24010KT 08/05 A3027 RMK A01 T00770048  RH  084%=      5-min Rain = 0
KTIS 082330Z 24008KT 08/05 A3027 RMK A01 T00760048  RH  084%=      5-min Rain = 0
KTIS 082335Z 25010KT 08/05 A3027 RMK A01 T00760048  RH  084%=      5-min Rain = 0
KTIS 082340Z 24010KT 08/05 A3027 RMK A01 T00750048  RH  084%=      5-min Rain = 0
KTIS 082345Z 24009KT 08/05 A3027 RMK A01 T00750048  RH  085%=      5-min Rain = 0
KTIS 082350Z 23008KT 07/05 A3027 RMK A01 T00730047  RH  085%=      5-min Rain = 0
KTIS 082355Z 24010KT 07/05 A3027 RMK A01 T00730047  RH  086%=      5-min Rain = 0
KTIS 090000Z 24008KT 07/05 A3027 RMK A01 T00720046  RH  086%=      5-min Rain = 0
KTIS 090005Z 24007KT 07/05 A3027 RMK A01 T00690045  RH  086%=      5-min Rain = 0
KTIS 090010Z 24006KT 07/04 A3027 RMK A01 T00660043  RH  087%=      5-min Rain = 0
KTIS 090015Z 24006KT 07/04 A3027 RMK A01 T00650043  RH  088%=      5-min Rain = 0
KTIS 090020Z 24005KT 06/04 A3027 RMK A01 T00630042  RH  088%=      5-min Rain = 0
KTIS 090025Z 24005KT 06/04 A3027 RMK A01 T00580038  RH  088%=      5-min Rain = 0
KTIS 090030Z 24005KT 06/04 A3027 RMK A01 T00550036  RH  089%=      5-min Rain = 0
KTIS 090035Z 24005KT 05/03 A3027 RMK A01 T00510033  RH  090%=      5-min Rain = 0
KTIS 090040Z 24005KT 05/03 A3027 RMK A01 T00500033  RH  090%=      5-min Rain = 0
KTIS 090045Z 24005KT 05/03 A3027 RMK A01 T00480032  RH  091%=      5-min Rain = 0
KTIS 090050Z 23005KT 05/03 A3027 RMK A01 T00470031  RH  091%=      5-min Rain = 0
KTIS 090055Z 23005KT 05/03 A3027 RMK A01 T00460031  RH  092%=      5-min Rain = 0
KTIS 090100Z 22006KT 04/03 A3027 RMK A01 T00440030  RH  092%=      5-min Rain = 0
KTIS 090105Z 22006KT 05/03 A3027 RMK A01 T00460033  RH  093%=      5-min Rain = 0
KTIS 090110Z 22006KT 04/03 A3027 RMK A01 T00440031  RH  092%=      5-min Rain = 0
KTIS 090115Z 22005KT 04/03 A3027 RMK A01 T00430030  RH  093%=      5-min Rain = 0
KTIS 090120Z 22003KT 04/03 A3027 RMK A01 T00410027  RH  093%=      5-min Rain = 0
KTIS 090125Z 22005KT 04/03 A3028 RMK A01 T00390026  RH  093%=      5-min Rain = 0
KTIS 090130Z 23006KT 04/03 A3028 RMK A01 T00380025  RH  093%=      5-min Rain = 0
KTIS 090135Z 24005KT 04/03 A3028 RMK A01 T00370026  RH  094%=      5-min Rain = 0
KTIS 090140Z 24006KT 04/03 A3028 RMK A01 T00370025  RH  094%=      5-min Rain = 0
KTIS 090145Z 23006KT 04/03 A3027 RMK A01 T00370026  RH  094%=      5-min Rain = 0
KTIS 090150Z 23007KT 04/03 A3027 RMK A01 T00430033  RH  095%=      5-min Rain = 0
KTIS 090155Z 22007KT 05/04 A3027 RMK A01 T00500039  RH  095%=      5-min Rain = 0
KTIS 090200Z 22008KT 05/04 A3027 RMK A01 T00500038  RH  094%=      5-min Rain = 0
KTIS 090205Z 22007KT 05/04 A3027 RMK A01 T00490038  RH  094%=      5-min Rain = 0
KTIS 090210Z 22007KT 05/04 A3027 RMK A01 T00480036  RH  093%=      5-min Rain = 0
KTIS 090215Z 22006KT 05/03 A3027 RMK A01 T00470034  RH  093%=      5-min Rain = 0
KTIS 090220Z 23006KT 05/03 A3027 RMK A01 T00450033  RH  093%=      5-min Rain = 0
KTIS 090225Z 23006KT 04/03 A3027 RMK A01 T00440032  RH  094%=      5-min Rain = 0
KTIS 090230Z 23005KT 04/03 A3027 RMK A01 T00440032  RH  094%=      5-min Rain = 0
KTIS 090235Z 23006KT 05/03 A3027 RMK A01 T00450034  RH  094%=      5-min Rain = 0
KTIS 090240Z 22006KT 05/03 A3027 RMK A01 T00450033  RH  094%=      5-min Rain = 0
KTIS 090245Z 23007KT 04/03 A3027 RMK A01 T00430031  RH  094%=      5-min Rain = 0
KTIS 090250Z 23008KT 05/03 A3027 RMK A01 T00450033  RH  094%=      5-min Rain = 0
KTIS 090255Z 24008KT 05/04 A3027 RMK A01 T00460035  RH  094%=      5-min Rain = 0
KTIS 090300Z 24008KT 05/04 A3027 RMK A01 T00470035  RH  094%=      5-min Rain = 0
KTIS 090305Z 24008KT 05/04 A3028 RMK A01 T00480036  RH  094%=      5-min Rain = 0
KTIS 090310Z 24009KT 05/04 A3028 RMK A01 T00500038  RH  094%=      5-min Rain = 0
KTIS 090315Z 23009KT 05/04 A3028 RMK A01 T00500038  RH  093%=      5-min Rain = 0
KTIS 090320Z 24009KT 05/04 A3028 RMK A01 T00480035  RH  093%=      5-min Rain = 0
KTIS 090325Z 24009KT 05/04 A3028 RMK A01 T00480035  RH  093%=      5-min Rain = 0
KTIS 090330Z 24010KT 05/04 A3028 RMK A01 T00480035  RH  093%=      5-min Rain = 0
KTIS 090335Z 24010KT 05/04 A3028 RMK A01 T00490036  RH  093%=      5-min Rain = 0
KTIS 090340Z 24010KT 05/04 A3028 RMK A01 T00490036  RH  093%=      5-min Rain = 0
KTIS 090345Z 24009KT 05/04 A3028 RMK A01 T00490035  RH  092%=      5-min Rain = 0
KTIS 090350Z 25008KT 05/03 A3028 RMK A01 T00490034  RH  092%=      5-min Rain = 0
KTIS 090355Z 25009KT 05/04 A3028 RMK A01 T00510037  RH  092%=      5-min Rain = 0
KTIS 090400Z 25010KT 06/04 A3028 RMK A01 T00550040  RH  092%=      5-min Rain = 0
KTIS 090405Z 24010KT 06/04 A3028 RMK A01 T00550039  RH  091%=      5-min Rain = 0
KTIS 090410Z 24009KT 06/04 A3028 RMK A01 T00550038  RH  090%=      5-min Rain = 0
KTIS 090415Z 24010KT 06/04 A3028 RMK A01 T00570040  RH  091%=      5-min Rain = 0
KTIS 090420Z 24009KT 06/04 A3028 RMK A01 T00560037  RH  089%=      5-min Rain = 0
KTIS 090425Z 24008KT 05/04 A3028 RMK A01 T00520035  RH  090%=      5-min Rain = 0
KTIS 090430Z 25007KT 05/03 A3028 RMK A01 T00500033  RH  090%=      5-min Rain = 0
KTIS 090435Z 24008KT 05/03 A3028 RMK A01 T00480032  RH  091%=      5-min Rain = 0
KTIS 090440Z 25007KT 05/03 A3028 RMK A01 T00490033  RH  091%=      5-min Rain = 0
KTIS 090445Z 25007KT 05/04 A3028 RMK A01 T00510035  RH  091%=      5-min Rain = 0
KTIS 090450Z 25008KT 05/04 A3028 RMK A01 T00520036  RH  091%=      5-min Rain = 0
KTIS 090455Z 25009KT 05/04 A3028 RMK A01 T00540038  RH  091%=      5-min Rain = 0
KTIS 090500Z 25008KT 05/04 A3027 RMK A01 T00520035  RH  090%=      5-min Rain = 0
KTIS 090505Z 25009KT 05/04 A3027 RMK A01 T00530036  RH  091%=      5-min Rain = 0
KTIS 090510Z 25007KT 05/03 A3027 RMK A01 T00510033  RH  090%=      5-min Rain = 0
KTIS 090515Z 26008KT 05/03 A3027 RMK A01 T00480032  RH  091%=      5-min Rain = 0
KTIS 090520Z 25008KT 05/04 A3027 RMK A01 T00510035  RH  091%=      5-min Rain = 0
KTIS 090525Z 25008KT 05/03 A3027 RMK A01 T00510034  RH  090%=      5-min Rain = 0
KTIS 090530Z 25009KT 05/03 A3027 RMK A01 T00510034  RH  090%=      5-min Rain = 0
KTIS 090535Z 25008KT 05/03 A3027 RMK A01 T00510033  RH  090%=      5-min Rain = 0
KTIS 090540Z 25008KT 05/03 A3027 RMK A01 T00480030  RH  090%=      5-min Rain = 0
KTIS 090545Z 25009KT 05/03 A3027 RMK A01 T00480031  RH  090%=      5-min Rain = 0
KTIS 090550Z 25007KT 05/03 A3027 RMK A01 T00470029  RH  090%=      5-min Rain = 0
KTIS 090555Z 25007KT 04/03 A3027 RMK A01 T00440027  RH  090%=      5-min Rain = 0

Page generated in 0.0103 seconds.